KCBF/CBF METAR and TAF weather

Enter ICAO airport designator
Station Type Date Time Source
KCBF METAR 2018/04/26 15:15 UTC NOAA

KCBF 261515Z AUTO 23008KT 10SM CLR 12/05 A2997 RMK AO2


Station Type Date Time Source
KCBF Decoded METAR 2018/04/26 15:15 UTC NOAA

Council Bluffs, IA, United States (KCBF) 41-16N 095-46W
Apr 26, 2018 - 11:15 AM EDT / 2018.04.26 1515 UTC
Wind: from the SW (230 degrees) at 9 MPH (8 KT):0
Visibility: 10 mile(s):0
Sky conditions: clear
Temperature: 53 F (12 C)
Dew Point: 41 F (5 C)
Relative Humidity: 62%
Pressure (altimeter): 29.97 in. Hg (1014 hPa)
ob: KCBF 261515Z AUTO 23008KT 10SM CLR 12/05 A2997 RMK AO2
cycle: 15

Station Type Date Time Source
KCBF TAF UTC NOAA

Error!


Example: see airport list